createdAt,value
2019-05-18T00:00:52.565Z,968.87
2019-05-18T00:01:52.551Z,969.09
2019-05-18T00:02:52.577Z,968.62
2019-05-18T00:03:52.576Z,967.72
2019-05-18T00:06:08.372Z,966.09
2019-05-18T00:06:59.122Z,965.5
2019-05-18T00:07:59.126Z,964.87
2019-05-18T00:08:59.193Z,964.62
2019-05-18T00:09:59.119Z,964.51
2019-05-18T00:10:59.137Z,964.33
2019-05-18T00:11:59.193Z,963.93
2019-05-18T00:12:59.118Z,963.23
2019-05-18T00:13:59.124Z,961.63
2019-05-18T00:14:59.093Z,961.9
2019-05-18T00:15:59.096Z,961.35
2019-05-18T00:16:59.123Z,961.56
2019-05-18T00:17:59.151Z,961.99
2019-05-18T00:18:59.138Z,962.26
2019-05-18T00:19:59.128Z,962.62
2019-05-18T00:20:59.108Z,962.3
2019-05-18T00:27:35.789Z,963.72
2019-05-18T00:28:35.756Z,963.88
2019-05-18T00:29:35.780Z,963.89
2019-05-18T00:30:35.770Z,963.89
2019-05-18T00:31:35.753Z,964.31
2019-05-18T00:32:35.779Z,963.94
2019-05-18T00:33:35.806Z,963.6
2019-05-18T00:34:35.796Z,963.75
2019-05-18T00:35:35.781Z,964.2
2019-05-18T00:36:35.793Z,963.9
2019-05-18T00:37:35.782Z,963.8
2019-05-18T00:38:35.782Z,963.25
2019-05-18T00:39:35.795Z,963.24
2019-05-18T00:40:51.531Z,962.58
2019-05-18T00:41:51.530Z,962.41
2019-05-18T00:42:51.538Z,962.1
2019-05-18T00:43:51.514Z,961.51
2019-05-18T00:44:51.597Z,961.22
2019-05-18T00:45:51.514Z,961.01
2019-05-18T00:46:51.514Z,960.41
2019-05-18T00:47:51.533Z,960
2019-05-18T00:48:51.523Z,958.69
2019-05-18T00:49:51.849Z,957.54
2019-05-18T00:50:51.509Z,956.21
2019-05-18T00:51:51.541Z,955.45
2019-05-18T00:52:51.519Z,954.1
2019-05-18T00:53:51.536Z,953.34
2019-05-18T00:54:51.536Z,952.79
2019-05-18T00:55:51.898Z,952.7
2019-05-18T00:56:51.530Z,952.7
2019-05-18T00:57:51.555Z,951.84
2019-05-18T00:58:51.521Z,951.68
2019-05-18T00:59:51.546Z,951.05
2019-05-18T01:00:51.520Z,950.33
2019-05-18T01:01:51.546Z,949.45
2019-05-18T01:02:51.549Z,949.75
2019-05-18T01:03:51.555Z,949.09
2019-05-18T01:04:51.570Z,949.11
2019-05-18T01:05:51.547Z,948.93
2019-05-18T01:06:51.556Z,948.63
2019-05-18T01:07:51.947Z,948.82
2019-05-18T01:08:51.553Z,949.18
2019-05-18T01:09:51.558Z,948.93
2019-05-18T01:10:51.538Z,948.48
2019-05-18T01:11:51.547Z,948.03
2019-05-18T01:12:55.257Z,947.01
2019-05-18T01:13:51.579Z,945.72
2019-05-18T01:14:51.550Z,944.52
2019-05-18T01:15:51.550Z,943.71
2019-05-18T01:16:51.579Z,942.54
2019-05-18T01:17:57.166Z,942.47
2019-05-18T01:18:51.550Z,942.46
2019-05-18T01:19:51.583Z,942.16
2019-05-18T01:20:51.606Z,942.26
2019-05-18T01:21:51.577Z,942.34
2019-05-18T01:22:51.590Z,942.22
2019-05-18T01:23:51.593Z,942.42
2019-05-18T01:24:51.593Z,942.46
2019-05-18T01:25:51.564Z,942.86
2019-05-18T01:26:51.584Z,942.51
2019-05-18T01:27:51.597Z,942.07
2019-05-18T01:28:51.578Z,940.6
2019-05-18T01:29:51.589Z,939.44
2019-05-18T01:30:51.573Z,937.78
2019-05-18T01:31:51.574Z,937.02
2019-05-18T01:32:51.628Z,935.59
2019-05-18T01:33:51.587Z,934.69
2019-05-18T01:34:51.593Z,934.24
2019-05-18T01:35:51.585Z,932.9
2019-05-18T01:36:51.593Z,933.46
2019-05-18T01:37:51.588Z,933.49
2019-05-18T01:38:51.613Z,932.55
2019-05-18T01:39:51.598Z,931.54
2019-05-18T01:41:07.434Z,930.56
2019-05-18T01:42:07.390Z,930.61
2019-05-18T01:43:07.406Z,930.61
2019-05-18T01:44:07.374Z,930.78
2019-05-18T01:45:16.121Z,931.18
2019-05-18T01:46:07.410Z,931.63
2019-05-18T01:47:07.396Z,931.76
2019-05-18T01:48:13.582Z,932.17
2019-05-18T01:49:07.383Z,933.07
2019-05-18T01:50:07.554Z,932.73
2019-05-18T01:51:07.376Z,932.73
2019-05-18T01:52:07.406Z,931.78
2019-05-18T01:53:07.415Z,931.78
2019-05-18T01:54:07.424Z,931.22
2019-05-18T01:55:07.388Z,930.34
2019-05-18T01:56:07.392Z,930.11
2019-05-18T01:57:07.418Z,929.04
2019-05-18T01:58:07.403Z,927.66
2019-05-18T01:59:07.428Z,927.92
2019-05-18T02:00:07.644Z,927.67
2019-05-18T02:01:07.402Z,927.23
2019-05-18T02:02:07.441Z,927.3
2019-05-18T02:03:07.396Z,927.33
2019-05-18T02:04:07.403Z,926.29
2019-05-18T02:05:07.431Z,925.67
2019-05-18T02:06:17.019Z,924.69
2019-05-18T02:07:07.439Z,923.14
2019-05-18T02:08:07.508Z,922.02
2019-05-18T02:09:07.415Z,920.41
2019-05-18T02:10:07.599Z,918.99
2019-05-18T02:11:07.432Z,918.15
2019-05-18T02:12:07.417Z,916.3
2019-05-18T02:13:07.441Z,915.25
2019-05-18T02:14:07.426Z,914.2
2019-05-18T02:15:07.478Z,912.91
2019-05-18T02:16:07.460Z,911.63
2019-05-18T02:17:07.454Z,909.2
2019-05-18T02:18:07.454Z,908.88
2019-05-18T02:19:07.450Z,907.29
2019-05-18T02:20:07.672Z,905.44
2019-05-18T02:21:07.579Z,903.91
2019-05-18T02:22:07.462Z,902.88
2019-05-18T02:23:07.447Z,901.09
2019-05-18T02:24:07.486Z,899.89
2019-05-18T02:25:07.441Z,899.13
2019-05-18T02:26:07.466Z,898.31
2019-05-18T02:27:07.469Z,897.86
2019-05-18T02:28:07.459Z,896.47
2019-05-18T02:29:07.445Z,895.92
2019-05-18T02:30:07.680Z,895.02
2019-05-18T02:31:07.463Z,894.75
2019-05-18T02:32:07.449Z,894.04
2019-05-18T02:33:07.471Z,893.78
2019-05-18T02:34:07.465Z,893.96
2019-05-18T02:35:07.451Z,893.23
2019-05-18T02:36:07.453Z,891.9
2019-05-18T02:37:07.462Z,892.06
2019-05-18T02:38:07.453Z,891.46
2019-05-18T02:39:07.497Z,891.48
2019-05-18T02:40:08.433Z,891.5
2019-05-18T02:41:07.469Z,891.62
2019-05-18T02:42:07.478Z,891.41
2019-05-18T02:43:07.462Z,892.51
2019-05-18T02:44:07.471Z,892.69
2019-05-18T02:45:07.495Z,892.99
2019-05-18T02:46:07.466Z,893.25
2019-05-18T02:47:07.479Z,892.82
2019-05-18T02:48:07.498Z,892.72
2019-05-18T02:49:07.484Z,892.33
2019-05-18T02:50:08.036Z,892.2
2019-05-18T02:51:11.011Z,892.11
2019-05-18T02:52:07.483Z,892.33
2019-05-18T02:53:07.494Z,892.32
2019-05-18T02:54:07.476Z,892.62
2019-05-18T02:55:07.483Z,891.92
2019-05-18T02:56:07.489Z,892.09
2019-05-18T02:57:07.479Z,891.81
2019-05-18T02:58:07.485Z,891.27
2019-05-18T02:59:07.505Z,891.12
2019-05-18T03:00:07.737Z,891.36
2019-05-18T03:01:07.481Z,890.69
2019-05-18T03:02:07.509Z,890.45
2019-05-18T03:03:07.496Z,890.38
2019-05-18T03:04:07.503Z,890.31
2019-05-18T03:05:07.510Z,890.29
2019-05-18T03:06:07.515Z,890.29
2019-05-18T03:07:07.541Z,891.26
2019-05-18T03:08:07.506Z,891.48
2019-05-18T03:09:07.493Z,891.73
2019-05-18T03:10:07.749Z,891.91
2019-05-18T03:11:07.525Z,892.61
2019-05-18T03:12:07.532Z,893.02
2019-05-18T03:13:07.538Z,892.9
2019-05-18T03:14:07.563Z,893.26
2019-05-18T03:15:07.513Z,893.42
2019-05-18T03:16:07.519Z,893.32
2019-05-18T03:17:07.530Z,893.3
2019-05-18T03:18:07.533Z,893.11
2019-05-18T03:19:09.039Z,893.13
2019-05-18T03:20:07.772Z,891.84
2019-05-18T03:21:07.516Z,892.14
2019-05-18T03:22:07.515Z,891.9
2019-05-18T03:23:07.521Z,891.93
2019-05-18T03:24:07.534Z,891.26
2019-05-18T03:25:07.542Z,891.72
2019-05-18T03:26:07.545Z,891.75
2019-05-18T03:27:07.669Z,891.67
2019-05-18T03:28:07.535Z,891.4
2019-05-18T03:29:07.546Z,891.75
2019-05-18T03:30:07.807Z,891.38
2019-05-18T03:31:07.890Z,891.14
2019-05-18T03:32:07.541Z,890.34
2019-05-18T03:33:07.574Z,889.35
2019-05-18T03:34:07.562Z,888.61
2019-05-18T03:35:07.558Z,888.3
2019-05-18T03:36:07.605Z,887.71
2019-05-18T03:37:07.557Z,887.59
2019-05-18T03:41:36.949Z,882.63
2019-05-18T03:42:36.935Z,881.21
2019-05-18T03:43:36.951Z,879.05
2019-05-18T03:44:36.950Z,877.94
2019-05-18T03:45:36.970Z,877.01
2019-05-18T03:46:36.961Z,875.68
2019-05-18T03:47:36.971Z,875.31
2019-05-18T03:48:36.941Z,875.19
2019-05-18T03:49:36.959Z,874.99
2019-05-18T03:50:36.948Z,874.29
2019-05-18T03:51:36.952Z,873.56
2019-05-18T03:52:36.944Z,872.07
2019-05-18T03:53:36.955Z,870.8
2019-05-18T03:54:36.962Z,869.43
2019-05-18T03:55:36.984Z,868.55
2019-05-18T03:56:36.971Z,867.64
2019-05-18T03:57:36.962Z,867.47
2019-05-18T03:58:36.960Z,867.61
2019-05-18T03:59:36.964Z,868.24
2019-05-18T04:00:36.974Z,868.4
2019-05-18T04:01:36.957Z,869.07
2019-05-18T04:02:36.977Z,870.78
2019-05-18T04:03:36.982Z,871.59
2019-05-18T04:04:36.983Z,871.98
2019-05-18T04:05:36.990Z,872.61
2019-05-18T04:06:36.972Z,873.01
2019-05-18T04:07:36.979Z,873.29
2019-05-18T04:08:36.970Z,873.32
2019-05-18T04:09:36.968Z,873.07
2019-05-18T04:10:36.985Z,873.71
2019-05-18T04:11:37.004Z,873.93
2019-05-18T04:12:36.998Z,874.71
2019-05-18T04:13:36.997Z,875.1
2019-05-18T04:14:37.004Z,875.96
2019-05-18T04:15:36.988Z,877.15
2019-05-18T04:16:36.977Z,878.15
2019-05-18T04:17:37.003Z,878.61
2019-05-18T04:18:37.010Z,879.63
2019-05-18T04:19:46.041Z,880.66
2019-05-18T04:20:37.004Z,881.28
2019-05-18T04:21:37.074Z,882.83
2019-05-18T04:22:36.994Z,883.91
2019-05-18T04:23:37.021Z,884.77
2019-05-18T04:24:37.010Z,885.86
2019-05-18T04:25:37.019Z,886.67
2019-05-18T04:26:37.093Z,887.36
2019-05-18T04:27:36.993Z,888.65
2019-05-18T04:28:36.995Z,889.33
2019-05-18T04:29:37.005Z,890.57
2019-05-18T04:30:37.005Z,892.08
2019-05-18T04:31:37.020Z,892.98
2019-05-18T04:32:37.042Z,894.01
2019-05-18T04:33:37.028Z,895.04
2019-05-18T04:34:37.021Z,896.33
2019-05-18T04:35:37.004Z,897.44
2019-05-18T04:36:37.294Z,898.76
2019-05-18T04:37:37.059Z,899.71
2019-05-18T04:38:37.080Z,901.01
2019-05-18T04:39:37.105Z,902.21
2019-05-18T04:40:37.048Z,902.94
2019-05-18T04:41:37.103Z,904.21
2019-05-18T04:42:37.337Z,904.87
2019-05-18T04:43:37.111Z,905.88
2019-05-18T04:44:37.059Z,907.88
2019-05-18T04:45:37.053Z,908.85
2019-05-18T04:46:37.051Z,909.84
2019-05-18T04:47:37.067Z,910.64
2019-05-18T04:48:37.058Z,912.01
2019-05-18T04:49:37.049Z,913
2019-05-18T04:50:37.030Z,914.35
2019-05-18T04:51:37.043Z,915.15
2019-05-18T04:52:37.045Z,916.27
2019-05-18T04:53:37.055Z,917.18
2019-05-18T04:54:37.035Z,918.2
2019-05-18T04:55:37.064Z,919.91
2019-05-18T04:56:37.090Z,921.23
2019-05-18T04:57:37.099Z,922.51
2019-05-18T04:58:37.068Z,924.73
2019-05-18T04:59:37.048Z,925.56
2019-05-18T05:00:37.057Z,927.89
2019-05-18T05:01:37.149Z,929.62
2019-05-18T05:02:37.071Z,931.05
2019-05-18T05:03:37.557Z,932.81
2019-05-18T05:04:37.102Z,934.55
2019-05-18T05:05:37.091Z,936.19
2019-05-18T05:06:37.103Z,937.91
2019-05-18T05:07:37.060Z,940.22
2019-05-18T05:08:37.066Z,942.3
2019-05-18T05:09:37.096Z,943.55
2019-05-18T05:10:37.085Z,945.6
2019-05-18T05:11:37.063Z,946.78
2019-05-18T05:12:37.153Z,948.34
2019-05-18T05:13:37.079Z,950.4
2019-05-18T05:14:37.066Z,951.72
2019-05-18T05:15:37.079Z,953.12
2019-05-18T05:16:37.095Z,954.6
2019-05-18T05:17:37.086Z,956.07
2019-05-18T05:18:37.117Z,957.4
2019-05-18T05:19:37.080Z,959.34
2019-05-18T05:20:37.166Z,961.35
2019-05-18T05:21:37.095Z,963.09
2019-05-18T05:22:37.101Z,965.1
2019-05-18T05:23:37.102Z,966.68
2019-05-18T05:24:37.090Z,967.75
2019-05-18T05:25:37.117Z,969.4
2019-05-18T05:26:39.386Z,971.36
2019-05-18T05:27:37.091Z,973.22
2019-05-18T05:28:37.148Z,975.07
2019-05-18T05:29:37.128Z,976.66
2019-05-18T05:30:37.110Z,978.04
2019-05-18T05:31:37.133Z,979.84
2019-05-18T05:32:37.124Z,981.37
2019-05-18T05:33:37.116Z,983.24
2019-05-18T05:34:37.122Z,985.05
2019-05-18T05:35:37.780Z,986.47
2019-05-18T05:36:45.340Z,988.27
2019-05-18T05:37:37.243Z,989.55
2019-05-18T05:38:37.108Z,991.28
2019-05-18T05:39:37.124Z,992.8
2019-05-18T05:40:37.112Z,994.21
2019-05-18T05:41:37.117Z,995.55
2019-05-18T05:42:37.125Z,997.45
2019-05-18T05:43:37.150Z,998.66
2019-05-18T05:44:37.138Z,1000.33
2019-05-18T05:45:37.123Z,1002.03
2019-05-18T05:46:37.522Z,1003.83
2019-05-18T05:47:37.116Z,1005.52
2019-05-18T05:48:37.125Z,1007.29
2019-05-18T05:49:37.150Z,1008.79
2019-05-18T05:50:37.166Z,1010.32
2019-05-18T05:51:37.133Z,1012.57
2019-05-18T05:52:37.153Z,1014.72
2019-05-18T05:53:37.149Z,1016.66
2019-05-18T05:54:37.154Z,1018.55
2019-05-18T05:55:37.132Z,1020.64
2019-05-18T05:56:37.170Z,1022.63
2019-05-18T05:57:37.142Z,1024.33
2019-05-18T05:58:37.159Z,1026.11
2019-05-18T05:59:37.153Z,1027.95
2019-05-18T06:00:37.178Z,1029.73
2019-05-18T06:01:37.147Z,1031.9
2019-05-18T06:02:37.169Z,1033.37
2019-05-18T06:03:37.183Z,1034.82
2019-05-18T06:04:37.167Z,1036.7
2019-05-18T06:05:37.160Z,1038.89
2019-05-18T06:06:40.782Z,1040.9
2019-05-18T06:07:37.180Z,1043.16
2019-05-18T06:08:37.156Z,1045.08
2019-05-18T06:09:37.176Z,1047.2
2019-05-18T06:10:37.200Z,1049.28
2019-05-18T06:11:37.176Z,1051.39
2019-05-18T06:12:37.190Z,1053.47
2019-05-18T06:13:37.247Z,1055.47
2019-05-18T06:14:37.187Z,1057.61
2019-05-18T06:15:37.205Z,1061.2
2019-05-18T06:16:37.189Z,1068.81
2019-05-18T06:17:37.187Z,1078.86
2019-05-18T06:18:37.193Z,1087.71
2019-05-18T06:19:37.210Z,1094.07
2019-05-18T06:20:50.320Z,1099.21
2019-05-18T06:21:37.196Z,1103.43
2019-05-18T06:22:37.208Z,1107.38
2019-05-18T06:23:37.289Z,1110.64
2019-05-18T06:24:37.197Z,1113.36
2019-05-18T06:25:37.836Z,1115.62
2019-05-18T06:26:37.231Z,1117.23
2019-05-18T06:27:37.198Z,1118.35
2019-05-18T06:28:37.218Z,1119.09
2019-05-18T06:29:37.184Z,1119.39
2019-05-18T06:30:37.273Z,1119.38
2019-05-18T06:31:37.198Z,1119.19
2019-05-18T06:32:37.227Z,1118.6
2019-05-18T06:33:37.217Z,1117.82
2019-05-18T06:34:37.224Z,1116.63
2019-05-18T06:35:37.226Z,1115.2
2019-05-18T06:36:48.072Z,1113.52
2019-05-18T06:37:37.231Z,1111.81
2019-05-18T06:38:37.307Z,1110.1
2019-05-18T06:39:37.204Z,1108.35
2019-05-18T06:40:37.308Z,1106.58
2019-05-18T06:41:37.208Z,1104.78
2019-05-18T06:42:37.227Z,1102.55
2019-05-18T06:43:37.237Z,1100.37
2019-05-18T06:44:37.232Z,1098.21
2019-05-18T06:45:37.242Z,1095.58
2019-05-18T06:46:37.251Z,1093.4
2019-05-18T06:47:37.270Z,1091.21
2019-05-18T06:48:37.243Z,1089.28
2019-05-18T06:49:37.244Z,1087.64
2019-05-18T06:50:37.260Z,1085.97
2019-05-18T06:51:37.247Z,1084.34
2019-05-18T06:52:37.225Z,1082.39
2019-05-18T06:53:37.291Z,1081.18
2019-05-18T06:54:37.239Z,1080.06
2019-05-18T06:55:37.267Z,1078.27
2019-05-18T06:56:37.232Z,1077.41
2019-05-18T06:57:37.261Z,1077.01
2019-05-18T06:58:37.261Z,1075.73
2019-05-18T06:59:37.288Z,1073.46
2019-05-18T07:00:37.300Z,1071.93
2019-05-18T07:01:37.240Z,1069.34
2019-05-18T07:02:37.253Z,1066.85
2019-05-18T07:03:37.270Z,1064.03
2019-05-18T07:04:37.379Z,1061.98
2019-05-18T07:05:37.576Z,1061
2019-05-18T07:06:47.665Z,1061.29
2019-05-18T07:07:37.279Z,1062.99
2019-05-18T07:08:37.264Z,1065.17
2019-05-18T07:09:37.298Z,1065.68
2019-05-18T07:10:37.336Z,1064.96
2019-05-18T07:11:37.265Z,1063.84
2019-05-18T07:12:37.289Z,1063.77
2019-05-18T07:13:37.276Z,1063.94
2019-05-18T07:14:37.286Z,1064.33
2019-05-18T07:15:37.289Z,1064.09
2019-05-18T07:16:37.668Z,1064.19
2019-05-18T07:17:37.280Z,1065.14
2019-05-18T07:18:37.288Z,1066.58
2019-05-18T07:19:37.284Z,1066.91
2019-05-18T07:20:37.361Z,1066.19
2019-05-18T07:21:37.302Z,1065.45
2019-05-18T07:22:37.316Z,1064.86
2019-05-18T07:23:37.284Z,1064.21
2019-05-18T07:24:37.332Z,1063.58
2019-05-18T07:25:37.298Z,1062.4
2019-05-18T07:26:37.284Z,1061.24
2019-05-18T07:27:37.331Z,1060.49
2019-05-18T07:28:37.294Z,1060.31
2019-05-18T07:29:37.300Z,1060.19
2019-05-18T07:30:37.357Z,1059.72
2019-05-18T07:31:37.295Z,1059.81
2019-05-18T07:32:37.320Z,1059.74
2019-05-18T07:33:37.329Z,1059.1
2019-05-18T07:34:37.317Z,1058.26
2019-05-18T07:35:37.340Z,1057.98
2019-05-18T07:36:37.329Z,1058.26
2019-05-18T07:37:37.312Z,1058.14
2019-05-18T07:38:37.316Z,1058.85
2019-05-18T07:39:37.335Z,1059.64
2019-05-18T07:40:37.368Z,1060.08
2019-05-18T07:41:46.141Z,1060.31
2019-05-18T07:42:37.350Z,1060.93
2019-05-18T07:43:37.354Z,1061.77
2019-05-18T07:44:37.357Z,1062.35
2019-05-18T07:45:37.324Z,1062.09
2019-05-18T07:46:37.351Z,1061.69
2019-05-18T07:47:37.357Z,1061.26
2019-05-18T07:48:37.367Z,1060.66
2019-05-18T07:49:37.327Z,1059.59
2019-05-18T07:50:37.394Z,1058.79
2019-05-18T07:51:37.546Z,1058.45
2019-05-18T07:52:37.354Z,1058.32
2019-05-18T07:53:37.361Z,1058.21
2019-05-18T07:54:37.362Z,1058.3
2019-05-18T07:55:37.349Z,1057.36
2019-05-18T07:56:37.373Z,1056.77
2019-05-18T07:57:37.366Z,1056.21
2019-05-18T07:58:37.344Z,1056.06
2019-05-18T07:59:37.364Z,1055.69
2019-05-18T08:00:37.386Z,1055.2
2019-05-18T08:01:37.448Z,1055.96
2019-05-18T08:02:37.351Z,1056.37
2019-05-18T08:03:37.479Z,1056.16
2019-05-18T08:04:39.754Z,1055.67
2019-05-18T08:05:37.374Z,1054.07
2019-05-18T08:06:37.359Z,1052.02
2019-05-18T08:07:38.102Z,1049.88
2019-05-18T08:08:37.406Z,1048.07
2019-05-18T08:09:37.366Z,1046.2
2019-05-18T08:10:37.441Z,1044.61
2019-05-18T08:11:37.433Z,1043.23
2019-05-18T08:12:37.451Z,1041.86
2019-05-18T08:13:37.384Z,1040.57
2019-05-18T08:14:37.391Z,1040.18
2019-05-18T08:15:37.385Z,1039.76
2019-05-18T08:16:37.406Z,1038.63
2019-05-18T08:17:37.394Z,1037.15
2019-05-18T08:18:37.377Z,1035.47
2019-05-18T08:19:37.384Z,1034.4
2019-05-18T08:20:37.412Z,1033.79
2019-05-18T08:21:50.802Z,1033.49
2019-05-18T08:22:37.407Z,1033.07
2019-05-18T08:23:37.399Z,1031.69
2019-05-18T08:24:37.418Z,1030.3
2019-05-18T08:25:37.408Z,1028.01
2019-05-18T08:26:37.414Z,1025.33
2019-05-18T08:34:04.253Z,1022.58
2019-05-18T08:34:15.324Z,1012.59
2019-05-18T08:35:15.270Z,1010.92
2019-05-18T08:36:15.286Z,1008.92
2019-05-18T08:37:15.293Z,1006.95
2019-05-18T08:38:15.286Z,1005.1
2019-05-18T08:39:15.313Z,1003.13
2019-05-18T08:40:15.271Z,1001.68
2019-05-18T08:41:15.298Z,999.8
2019-05-18T08:42:15.283Z,998.2
2019-05-18T08:43:15.291Z,996.12
2019-05-18T08:44:15.278Z,994.47
2019-05-18T08:45:15.307Z,994.03
2019-05-18T08:46:15.294Z,993.94
2019-05-18T08:47:15.319Z,993.95
2019-05-18T08:48:15.305Z,993.8
2019-05-18T08:49:15.313Z,992.87
2019-05-18T08:50:15.320Z,992.32
2019-05-18T08:51:15.452Z,991.47
2019-05-18T08:52:15.335Z,990.2
2019-05-18T08:53:15.320Z,988.32
2019-05-18T08:54:15.333Z,986.45
2019-05-18T08:55:15.325Z,983.95
2019-05-18T08:56:15.320Z,982.57
2019-05-18T08:57:15.346Z,981.76
2019-05-18T08:58:15.329Z,980.8
2019-05-18T08:59:15.317Z,979.04
2019-05-18T09:00:15.378Z,976.42
2019-05-18T09:01:15.335Z,973.99
2019-05-18T09:02:15.317Z,971.81
2019-05-18T09:03:15.341Z,970.86
2019-05-18T09:04:15.348Z,970.41
2019-05-18T09:05:15.345Z,969.5
2019-05-18T09:06:15.326Z,968.22
2019-05-18T09:07:15.328Z,967.72
2019-05-18T09:08:15.333Z,968.09
2019-05-18T09:09:15.337Z,968.93
2019-05-18T09:10:15.368Z,969.07
2019-05-18T09:11:15.354Z,968.32
2019-05-18T09:12:15.359Z,968.07
2019-05-18T09:13:15.351Z,969.12
2019-05-18T09:14:15.368Z,969.13
2019-05-18T09:15:15.364Z,968.56
2019-05-18T09:16:15.363Z,967.16
2019-05-18T09:17:15.349Z,967.02
2019-05-18T09:18:15.375Z,966.84
2019-05-18T09:19:15.364Z,967.46
2019-05-18T09:20:15.368Z,967.28
2019-05-18T09:21:31.084Z,967.98
2019-05-18T09:22:31.057Z,968.45
2019-05-18T09:23:31.084Z,969.26
2019-05-18T09:24:31.105Z,968.58
2019-05-18T09:26:49.307Z,964.91
2019-05-18T09:27:49.291Z,962.57
2019-05-18T09:28:49.286Z,961
2019-05-18T09:29:49.287Z,958.64
2019-05-18T09:30:49.297Z,955.88
2019-05-18T09:31:49.302Z,953.04
2019-05-18T09:32:49.280Z,951.39
2019-05-18T09:33:49.290Z,950.73
2019-05-18T09:34:49.299Z,950.72
2019-05-18T09:37:06.902Z,948.67
2019-05-18T09:37:59.388Z,946.44
2019-05-18T09:38:59.414Z,942.31
2019-05-18T09:39:59.399Z,939.25
2019-05-18T09:40:59.419Z,935.83
2019-05-18T09:41:59.404Z,931.41
2019-05-18T09:42:59.392Z,927.85
2019-05-18T09:43:59.408Z,925.28
2019-05-18T09:44:59.414Z,923.89
2019-05-18T09:45:59.414Z,923.59
2019-05-18T09:46:59.406Z,923.77
2019-05-18T09:47:59.424Z,923.63
2019-05-18T09:48:59.408Z,922.75
2019-05-18T09:49:59.441Z,919.06
2019-05-18T09:50:59.426Z,915.17
2019-05-18T09:51:59.410Z,912.55
2019-05-18T09:52:59.430Z,911.79
2019-05-18T09:53:59.430Z,912.91
2019-05-18T09:54:59.438Z,915.34
2019-05-18T09:55:59.436Z,917.13
2019-05-18T09:56:59.433Z,917.81
2019-05-18T09:57:59.441Z,917.08
2019-05-18T09:58:59.416Z,914.99
2019-05-18T09:59:59.429Z,912.61
2019-05-18T10:00:59.459Z,909.8
2019-05-18T10:01:59.465Z,906.4
2019-05-18T10:02:59.428Z,902.46
2019-05-18T10:03:59.453Z,897.63
2019-05-18T10:04:59.439Z,894.41
2019-05-18T10:05:59.463Z,889.99
2019-05-18T10:07:06.984Z,887.05
2019-05-18T10:07:59.443Z,885.08
2019-05-18T10:08:59.439Z,884.95
2019-05-18T10:09:59.495Z,884.48
2019-05-18T10:10:59.638Z,884.17
2019-05-18T10:11:59.461Z,884.59
2019-05-18T10:12:59.446Z,884.06
2019-05-18T10:13:59.549Z,882.15
2019-05-18T10:14:59.460Z,879.06
2019-05-18T10:15:59.470Z,876.14
2019-05-18T10:16:59.504Z,873.36
2019-05-18T10:17:59.458Z,873.49
2019-05-18T10:18:59.486Z,874.49
2019-05-18T10:19:59.480Z,873.61
2019-05-18T10:20:59.457Z,872.52
2019-05-18T10:21:59.468Z,869.76
2019-05-18T10:23:12.170Z,867.43
2019-05-18T10:23:59.498Z,866.03
2019-05-18T10:24:59.535Z,865.21
2019-05-18T10:25:59.490Z,866.54
2019-05-18T10:26:59.518Z,868.32
2019-05-18T10:27:59.551Z,870.17
2019-05-18T10:28:59.480Z,869.5
2019-05-18T10:29:59.516Z,867.8
2019-05-18T10:30:59.526Z,864.69
2019-05-18T10:31:59.478Z,860.51
2019-05-18T10:32:59.501Z,856.81
2019-05-18T10:33:59.485Z,852.95
2019-05-18T10:34:59.493Z,849.84
2019-05-18T10:35:59.501Z,847.82
2019-05-18T10:36:59.562Z,845.64
2019-05-18T10:42:17.942Z,843.1
2019-05-18T10:42:28.984Z,843.23
2019-05-18T10:43:29.022Z,846.28
2019-05-18T10:44:28.946Z,851.03
2019-05-18T10:45:29.110Z,856.25
2019-05-18T10:46:28.957Z,858.44
2019-05-18T10:47:28.977Z,858.2
2019-05-18T10:48:28.970Z,855.89
2019-05-18T10:49:28.952Z,854.17
2019-05-18T10:50:28.986Z,852.79
2019-05-18T10:51:28.944Z,851.59
2019-05-18T10:52:29.363Z,850.38
2019-05-18T10:53:29.243Z,847.79
2019-05-18T10:54:29.009Z,846.13
2019-05-18T10:55:28.980Z,845.2
2019-05-18T10:56:31.180Z,844.02
2019-05-18T10:57:28.963Z,843.86
2019-05-18T10:58:28.992Z,844.81
2019-05-18T10:59:28.977Z,844.24
2019-05-18T11:00:29.025Z,842.77
2019-05-18T11:01:28.970Z,840.89
2019-05-18T11:02:28.975Z,839.11
2019-05-18T11:03:29.001Z,837.7
2019-05-18T11:04:28.971Z,836.61
2019-05-18T11:05:29.014Z,833.47
2019-05-18T11:06:28.990Z,829.42
2019-05-18T11:07:29.195Z,827.21
2019-05-18T11:08:29.005Z,824.59
2019-05-18T11:09:28.983Z,833
2019-05-18T11:10:29.012Z,831.21
2019-05-18T11:11:29.005Z,825.8
2019-05-18T11:12:28.995Z,821.96
2019-05-18T11:13:29.011Z,821.56
2019-05-18T11:14:29.022Z,822.67
2019-05-18T11:15:29.005Z,822.91
2019-05-18T11:16:28.991Z,822.36
2019-05-18T11:17:29.002Z,820.39
2019-05-18T11:18:30.363Z,818.27
2019-05-18T11:22:59.258Z,817.26
2019-05-18T11:23:59.268Z,815.16
2019-05-18T11:24:59.249Z,811.13
2019-05-18T11:25:59.277Z,807.1
2019-05-18T11:26:59.250Z,803.49
2019-05-18T11:27:59.277Z,798.91
2019-05-18T11:28:59.259Z,796.08
2019-05-18T11:29:59.270Z,793.3
2019-05-18T11:30:59.256Z,790.67
2019-05-18T11:31:59.267Z,788.31
2019-05-18T11:32:59.284Z,789.03
2019-05-18T11:33:59.270Z,802.87
2019-05-18T11:34:59.443Z,821.58
2019-05-18T11:35:59.288Z,832.64
2019-05-18T11:37:02.900Z,844.39
2019-05-18T11:37:59.290Z,851.39
2019-05-18T11:38:59.297Z,862.1
2019-05-18T11:39:59.304Z,861.19
2019-05-18T11:40:59.275Z,869.08
2019-05-18T11:41:59.286Z,875.1
2019-05-18T11:42:59.291Z,867.92
2019-05-18T11:47:27.381Z,843.4
2019-05-18T11:48:27.374Z,838.82
2019-05-18T11:49:29.130Z,833.49
2019-05-18T11:50:27.350Z,828.85
2019-05-18T11:51:27.356Z,841.9
2019-05-18T11:52:27.387Z,852.9
2019-05-18T11:53:27.369Z,862.06
2019-05-18T11:54:27.354Z,870.11
2019-05-18T11:55:27.369Z,864.68
2019-05-18T11:56:27.367Z,873.07
2019-05-18T11:57:27.376Z,881.93
2019-05-18T11:58:27.403Z,890.65
2019-05-18T11:59:27.386Z,897.54
2019-05-18T12:00:27.393Z,890.36
2019-05-18T12:01:27.406Z,883.55
2019-05-18T12:02:27.370Z,878.13
2019-05-18T12:03:27.384Z,874.39
2019-05-18T12:04:27.440Z,869.18
2019-05-18T12:05:27.372Z,864.12
2019-05-18T12:06:27.397Z,860.41
2019-05-18T12:07:27.401Z,855.46
2019-05-18T12:08:27.388Z,853.09
2019-05-18T12:09:27.437Z,850.58
2019-05-18T12:10:27.403Z,847.98
2019-05-18T12:11:27.385Z,845.14
2019-05-18T12:12:27.393Z,842.97
2019-05-18T12:13:27.406Z,841.71
2019-05-18T12:14:27.406Z,841.18
2019-05-18T12:15:27.459Z,839.38
2019-05-18T12:16:27.442Z,835.7
2019-05-18T12:17:27.408Z,829.78
2019-05-18T12:18:27.418Z,825.31
2019-05-18T12:19:27.399Z,825.79
2019-05-18T12:20:27.407Z,822.33
2019-05-18T12:21:27.422Z,829.34
2019-05-18T12:22:27.423Z,826.31
2019-05-18T12:23:27.433Z,824.22
2019-05-18T12:24:27.421Z,825.46
2019-05-18T12:25:27.419Z,826.01
2019-05-18T12:26:27.408Z,826.27
2019-05-18T12:27:27.473Z,825.58
2019-05-18T12:28:27.437Z,824.28
2019-05-18T12:29:27.447Z,822.08
2019-05-18T12:30:27.423Z,819.39
2019-05-18T12:31:27.418Z,815.97
2019-05-18T12:32:27.423Z,812.89
2019-05-18T12:33:27.430Z,811.04
2019-05-18T12:34:27.806Z,808.63
2019-05-18T12:35:27.443Z,807.04
2019-05-18T12:36:27.452Z,803.56
2019-05-18T12:37:27.466Z,802.88
2019-05-18T12:38:27.446Z,808.85
2019-05-18T12:39:27.451Z,824.97
2019-05-18T12:40:27.435Z,836.16
2019-05-18T12:41:27.442Z,846.89
2019-05-18T12:42:27.478Z,846.09
2019-05-18T12:43:27.475Z,839.29
2019-05-18T12:44:27.444Z,836.13
2019-05-18T12:45:27.468Z,833.97
2019-05-18T12:46:27.465Z,829.49
2019-05-18T12:47:27.483Z,824.33
2019-05-18T12:48:27.515Z,819.3
2019-05-18T12:49:27.475Z,816.89
2019-05-18T12:50:27.480Z,814.52
2019-05-18T12:51:27.465Z,813.4
2019-05-18T12:52:27.477Z,814.67
2019-05-18T12:56:55.026Z,827.6
2019-05-18T12:57:55.025Z,826.07
2019-05-18T12:58:55.025Z,822.32
2019-05-18T12:59:55.028Z,819.35